createdAt,value
2023-12-29T00:00:38.050Z,531.00
2023-12-29T00:01:38.105Z,530.00
2023-12-29T00:02:38.036Z,531.00
2023-12-29T00:03:38.087Z,530.00
2023-12-29T00:04:38.005Z,532.00
2023-12-29T00:05:38.004Z,535.00
2023-12-29T00:06:46.152Z,536.00
2023-12-29T00:07:39.076Z,538.00
2023-12-29T00:08:38.008Z,539.00
2023-12-29T00:09:38.022Z,540.00
2023-12-29T00:10:38.010Z,540.00
2023-12-29T00:11:38.003Z,538.00
2023-12-29T00:12:38.027Z,537.00
2023-12-29T00:13:37.990Z,538.00
2023-12-29T00:14:38.017Z,538.00
2023-12-29T00:15:38.045Z,537.00
2023-12-29T00:16:38.033Z,539.00
2023-12-29T00:17:38.083Z,540.00
2023-12-29T00:18:38.100Z,537.00
2023-12-29T00:19:38.107Z,536.00
2023-12-29T00:20:41.644Z,534.00
2023-12-29T00:21:38.025Z,534.00
2023-12-29T00:22:38.032Z,533.00
2023-12-29T00:23:38.030Z,533.00
2023-12-29T00:24:38.036Z,531.00
2023-12-29T00:25:38.072Z,530.00
2023-12-29T00:26:38.036Z,532.00
2023-12-29T00:27:38.200Z,532.00
2023-12-29T00:28:38.040Z,531.00
2023-12-29T00:29:38.036Z,532.00
2023-12-29T00:30:48.076Z,535.00
2023-12-29T00:31:39.126Z,535.00
2023-12-29T00:32:38.064Z,538.00
2023-12-29T00:33:38.166Z,540.00
2023-12-29T00:34:38.080Z,538.00
2023-12-29T00:35:38.054Z,538.00
2023-12-29T00:36:38.086Z,536.00
2023-12-29T00:37:38.057Z,535.00
2023-12-29T00:38:38.087Z,535.00
2023-12-29T00:39:38.053Z,537.00
2023-12-29T00:40:38.064Z,538.00
2023-12-29T00:41:38.211Z,537.00
2023-12-29T00:42:38.197Z,537.00
2023-12-29T00:43:38.060Z,540.00
2023-12-29T00:44:38.078Z,540.00
2023-12-29T00:45:38.126Z,538.00
2023-12-29T00:46:38.100Z,537.00
2023-12-29T00:47:38.190Z,537.00
2023-12-29T00:48:38.322Z,535.00
2023-12-29T00:49:38.260Z,536.00
2023-12-29T00:50:38.225Z,537.00
2023-12-29T00:51:38.295Z,536.00
2023-12-29T00:52:38.304Z,537.00
2023-12-29T00:53:38.327Z,537.00
2023-12-29T00:54:38.420Z,538.00
2023-12-29T00:55:38.391Z,536.00
2023-12-29T00:56:38.434Z,536.00
2023-12-29T00:57:38.498Z,537.00
2023-12-29T00:58:38.503Z,539.00
2023-12-29T00:59:38.535Z,539.00
2023-12-29T01:00:38.690Z,538.00
2023-12-29T01:01:38.745Z,536.00
2023-12-29T01:02:38.651Z,536.00
2023-12-29T01:03:38.753Z,534.00
2023-12-29T01:04:38.889Z,537.00
2023-12-29T01:05:38.822Z,537.00
2023-12-29T01:06:38.815Z,537.00
2023-12-29T01:07:38.861Z,538.00
2023-12-29T01:08:38.871Z,537.00
2023-12-29T01:09:39.000Z,538.00
2023-12-29T01:10:38.960Z,536.00
2023-12-29T01:11:38.998Z,538.00
2023-12-29T01:12:39.085Z,539.00
2023-12-29T01:13:39.105Z,540.00
2023-12-29T01:14:39.140Z,539.00
2023-12-29T01:15:39.195Z,539.00
2023-12-29T01:16:39.238Z,538.00
2023-12-29T01:17:39.335Z,538.00
2023-12-29T01:18:39.433Z,539.00
2023-12-29T01:19:39.426Z,540.00
2023-12-29T01:20:39.387Z,540.00
2023-12-29T01:21:39.459Z,539.00
2023-12-29T01:22:39.497Z,536.00
2023-12-29T01:23:39.499Z,536.00
2023-12-29T01:24:45.559Z,534.00
2023-12-29T01:25:40.564Z,535.00
2023-12-29T01:26:39.751Z,535.00
2023-12-29T01:27:39.575Z,537.00
2023-12-29T01:28:39.865Z,539.00
2023-12-29T01:29:41.034Z,539.00
2023-12-29T01:30:39.712Z,539.00
2023-12-29T01:31:39.581Z,541.00
2023-12-29T01:32:39.612Z,544.00
2023-12-29T01:33:39.638Z,543.00
2023-12-29T01:34:39.765Z,544.00
2023-12-29T01:35:39.550Z,543.00
2023-12-29T01:36:39.570Z,543.00
2023-12-29T01:37:39.582Z,541.00
2023-12-29T01:38:39.617Z,538.00
2023-12-29T01:39:39.716Z,538.00
2023-12-29T01:40:39.776Z,539.00
2023-12-29T01:41:39.748Z,536.00
2023-12-29T01:42:39.860Z,538.00
2023-12-29T01:43:39.802Z,538.00
2023-12-29T01:44:39.925Z,539.00
2023-12-29T01:45:48.915Z,540.00
2023-12-29T01:46:40.905Z,539.00
2023-12-29T01:47:39.905Z,540.00
2023-12-29T01:48:40.011Z,542.00
2023-12-29T01:49:39.996Z,545.00
2023-12-29T01:50:39.894Z,546.00
2023-12-29T01:51:39.925Z,546.00
2023-12-29T01:52:39.897Z,548.00
2023-12-29T01:53:45.684Z,546.00
2023-12-29T01:54:40.907Z,545.00
2023-12-29T01:55:39.895Z,545.00
2023-12-29T01:56:39.910Z,546.00
2023-12-29T01:57:39.978Z,545.00
2023-12-29T01:58:39.908Z,544.00
2023-12-29T01:59:39.918Z,542.00
2023-12-29T02:00:39.956Z,545.00
2023-12-29T02:01:39.978Z,547.00
2023-12-29T02:02:39.920Z,547.00
2023-12-29T02:03:40.016Z,548.00
2023-12-29T02:04:39.991Z,545.00
2023-12-29T02:05:39.984Z,543.00
2023-12-29T02:06:39.989Z,542.00
2023-12-29T02:07:39.971Z,541.00
2023-12-29T02:08:40.071Z,538.00
2023-12-29T02:09:40.129Z,538.00
2023-12-29T02:10:40.084Z,540.00
2023-12-29T02:11:40.134Z,539.00
2023-12-29T02:12:40.200Z,538.00
2023-12-29T02:13:40.223Z,539.00
2023-12-29T02:14:40.346Z,537.00
2023-12-29T02:15:40.345Z,538.00
2023-12-29T02:16:40.362Z,537.00
2023-12-29T02:17:40.468Z,537.00
2023-12-29T02:18:40.501Z,540.00
2023-12-29T02:19:41.222Z,540.00
2023-12-29T02:20:40.557Z,540.00
2023-12-29T02:21:40.666Z,541.00
2023-12-29T02:22:40.659Z,540.00
2023-12-29T02:23:40.753Z,543.00
2023-12-29T02:24:41.045Z,543.00
2023-12-29T02:25:40.805Z,543.00
2023-12-29T02:26:40.868Z,545.00
2023-12-29T02:27:40.931Z,546.00
2023-12-29T02:28:41.109Z,546.00
2023-12-29T02:29:41.041Z,545.00
2023-12-29T02:30:41.129Z,545.00
2023-12-29T02:31:41.161Z,545.00
2023-12-29T02:32:41.282Z,546.00
2023-12-29T02:33:41.547Z,545.00
2023-12-29T02:34:41.408Z,543.00
2023-12-29T02:35:41.355Z,540.00
2023-12-29T02:36:41.421Z,539.00
2023-12-29T02:37:41.430Z,541.00
2023-12-29T02:38:41.457Z,541.00
2023-12-29T02:39:41.542Z,541.00
2023-12-29T02:40:41.568Z,540.00
2023-12-29T02:41:41.607Z,540.00
2023-12-29T02:42:41.733Z,538.00
2023-12-29T02:43:41.664Z,540.00
2023-12-29T02:44:41.712Z,540.00
2023-12-29T02:45:41.785Z,542.00
2023-12-29T02:46:41.804Z,542.00
2023-12-29T02:47:41.916Z,544.00
2023-12-29T02:48:42.009Z,544.00
2023-12-29T02:49:41.997Z,545.00
2023-12-29T02:50:41.997Z,543.00
2023-12-29T02:51:42.101Z,542.00
2023-12-29T02:52:42.135Z,542.00
2023-12-29T02:53:42.143Z,542.00
2023-12-29T02:54:42.178Z,544.00
2023-12-29T02:55:42.209Z,543.00
2023-12-29T02:56:42.254Z,542.00
2023-12-29T02:57:42.339Z,542.00
2023-12-29T02:58:42.329Z,542.00
2023-12-29T02:59:42.389Z,541.00
2023-12-29T03:00:42.530Z,542.00
2023-12-29T03:01:42.502Z,542.00
2023-12-29T03:02:42.495Z,540.00
2023-12-29T03:03:42.620Z,540.00
2023-12-29T03:04:42.564Z,542.00
2023-12-29T03:05:42.630Z,542.00
2023-12-29T03:06:42.666Z,545.00
2023-12-29T03:07:42.708Z,545.00
2023-12-29T03:08:42.736Z,544.00
2023-12-29T03:09:42.793Z,542.00
2023-12-29T03:10:42.824Z,542.00
2023-12-29T03:11:42.842Z,545.00
2023-12-29T03:12:42.980Z,545.00
2023-12-29T03:13:42.902Z,544.00
2023-12-29T03:14:42.955Z,545.00
2023-12-29T03:15:43.027Z,547.00
2023-12-29T03:16:43.056Z,547.00
2023-12-29T03:17:43.125Z,544.00
2023-12-29T03:18:43.365Z,542.00
2023-12-29T03:19:43.262Z,542.00
2023-12-29T03:20:43.229Z,543.00
2023-12-29T03:21:43.304Z,542.00
2023-12-29T03:22:43.334Z,541.00
2023-12-29T03:23:43.384Z,541.00
2023-12-29T03:24:43.496Z,542.00
2023-12-29T03:25:43.501Z,546.00
2023-12-29T03:26:43.557Z,547.00
2023-12-29T03:27:43.677Z,547.00
2023-12-29T03:28:43.626Z,548.00
2023-12-29T03:29:43.759Z,549.00
2023-12-29T03:30:43.778Z,548.00
2023-12-29T03:31:43.857Z,550.00
2023-12-29T03:32:43.840Z,551.00
2023-12-29T03:33:43.948Z,550.00
2023-12-29T03:34:44.002Z,549.00
2023-12-29T03:35:44.048Z,546.00
2023-12-29T03:36:44.111Z,545.00
2023-12-29T03:37:44.066Z,545.00
2023-12-29T03:38:44.117Z,544.00
2023-12-29T03:39:44.192Z,547.00
2023-12-29T03:40:44.219Z,547.00
2023-12-29T03:41:44.260Z,547.00
2023-12-29T03:42:44.373Z,548.00
2023-12-29T03:43:44.475Z,549.00
2023-12-29T03:44:44.436Z,551.00
2023-12-29T03:45:44.541Z,551.00
2023-12-29T03:46:44.491Z,552.00
2023-12-29T03:47:44.614Z,549.00
2023-12-29T03:48:44.744Z,548.00
2023-12-29T03:49:44.695Z,546.00
2023-12-29T03:50:44.702Z,546.00
2023-12-29T03:51:44.763Z,545.00
2023-12-29T03:52:44.810Z,546.00
2023-12-29T03:53:44.846Z,546.00
2023-12-29T03:54:44.904Z,546.00
2023-12-29T03:55:44.891Z,545.00
2023-12-29T03:56:44.941Z,544.00
2023-12-29T03:57:45.028Z,544.00
2023-12-29T03:58:45.020Z,545.00
2023-12-29T03:59:45.070Z,546.00
2023-12-29T04:00:45.204Z,547.00
2023-12-29T04:01:45.275Z,549.00
2023-12-29T04:02:45.273Z,548.00
2023-12-29T04:03:45.547Z,547.00
2023-12-29T04:04:45.506Z,545.00
2023-12-29T04:05:45.389Z,545.00
2023-12-29T04:06:45.484Z,546.00
2023-12-29T04:07:45.509Z,549.00
2023-12-29T04:08:45.593Z,550.00
2023-12-29T04:09:45.638Z,548.00
2023-12-29T04:10:45.683Z,546.00
2023-12-29T04:11:45.690Z,547.00
2023-12-29T04:12:45.824Z,546.00
2023-12-29T04:13:45.781Z,546.00
2023-12-29T04:14:45.827Z,545.00
2023-12-29T04:15:45.934Z,545.00
2023-12-29T04:16:45.936Z,547.00
2023-12-29T04:17:46.057Z,546.00
2023-12-29T04:18:46.128Z,545.00
2023-12-29T04:19:46.162Z,544.00
2023-12-29T04:20:46.115Z,543.00
2023-12-29T04:21:46.211Z,544.00
2023-12-29T04:22:46.301Z,544.00
2023-12-29T04:23:46.254Z,543.00
2023-12-29T04:24:46.338Z,544.00
2023-12-29T04:25:46.352Z,544.00
2023-12-29T04:26:46.421Z,544.00
2023-12-29T04:27:46.546Z,542.00
2023-12-29T04:28:46.492Z,542.00
2023-12-29T04:29:46.546Z,543.00
2023-12-29T04:30:46.756Z,545.00
2023-12-29T04:31:46.684Z,544.00
2023-12-29T04:32:46.759Z,546.00
2023-12-29T04:33:46.850Z,545.00
2023-12-29T04:34:46.908Z,546.00
2023-12-29T04:35:46.874Z,546.00
2023-12-29T04:36:46.929Z,546.00
2023-12-29T04:37:46.974Z,547.00
2023-12-29T04:38:47.013Z,546.00
2023-12-29T04:39:47.107Z,547.00
2023-12-29T04:40:47.135Z,549.00
2023-12-29T04:41:47.173Z,552.00
2023-12-29T04:42:47.259Z,554.00
2023-12-29T04:43:47.279Z,551.00
2023-12-29T04:44:47.331Z,552.00
2023-12-29T04:45:47.394Z,552.00
2023-12-29T04:46:47.431Z,550.00
2023-12-29T04:47:47.533Z,549.00
2023-12-29T04:48:47.619Z,549.00
2023-12-29T04:49:47.713Z,547.00
2023-12-29T04:50:47.629Z,544.00
2023-12-29T04:51:47.758Z,542.00
2023-12-29T04:52:47.753Z,542.00
2023-12-29T04:53:47.805Z,543.00
2023-12-29T04:54:49.164Z,542.00
2023-12-29T04:55:47.899Z,543.00
2023-12-29T04:56:47.947Z,542.00
2023-12-29T04:57:48.088Z,542.00
2023-12-29T04:58:55.520Z,552.00
2023-12-29T04:59:55.490Z,553.00
2023-12-29T05:00:55.502Z,551.00
2023-12-29T05:01:55.622Z,550.00
2023-12-29T05:02:55.511Z,549.00
2023-12-29T05:03:55.602Z,550.00
2023-12-29T05:04:55.707Z,550.00
2023-12-29T05:05:55.506Z,550.00
2023-12-29T05:06:55.534Z,549.00
2023-12-29T05:07:55.535Z,549.00
2023-12-29T05:08:55.500Z,548.00
2023-12-29T05:09:55.539Z,550.00
2023-12-29T05:10:55.496Z,549.00
2023-12-29T05:11:55.508Z,546.00
2023-12-29T05:12:55.542Z,547.00
2023-12-29T05:13:55.500Z,545.00
2023-12-29T05:14:55.505Z,542.00
2023-12-29T05:15:55.551Z,544.00
2023-12-29T05:16:55.502Z,543.00
2023-12-29T05:17:55.613Z,541.00
2023-12-29T05:18:55.632Z,540.00
2023-12-29T05:19:55.685Z,540.00
2023-12-29T05:20:55.513Z,540.00
2023-12-29T05:21:55.593Z,541.00
2023-12-29T05:22:55.559Z,541.00
2023-12-29T05:23:55.531Z,540.00
2023-12-29T05:24:55.600Z,541.00
2023-12-29T05:25:55.541Z,540.00
2023-12-29T05:26:55.528Z,541.00
2023-12-29T05:27:55.663Z,543.00
2023-12-29T05:28:55.689Z,544.00
2023-12-29T05:29:55.689Z,542.00
2023-12-29T05:30:55.798Z,544.00
2023-12-29T05:31:55.831Z,546.00
2023-12-29T05:32:55.991Z,545.00
2023-12-29T05:33:55.932Z,544.00
2023-12-29T05:34:55.968Z,544.00
2023-12-29T05:35:55.967Z,544.00
2023-12-29T05:36:56.059Z,544.00
2023-12-29T05:37:56.092Z,545.00
2023-12-29T05:38:56.115Z,544.00
2023-12-29T05:39:56.210Z,548.00
2023-12-29T05:40:56.209Z,548.00
2023-12-29T05:41:56.257Z,547.00
2023-12-29T05:42:56.433Z,546.00
2023-12-29T05:43:56.378Z,545.00
2023-12-29T05:44:56.422Z,544.00
2023-12-29T05:45:56.563Z,542.00
2023-12-29T05:46:56.534Z,543.00
2023-12-29T05:47:56.626Z,543.00
2023-12-29T05:48:56.709Z,544.00
2023-12-29T05:49:56.780Z,544.00
2023-12-29T05:50:56.732Z,545.00
2023-12-29T05:51:56.804Z,548.00
2023-12-29T05:52:56.857Z,548.00
2023-12-29T05:53:56.894Z,546.00
2023-12-29T05:54:56.971Z,546.00
2023-12-29T05:55:57.011Z,545.00
2023-12-29T05:56:57.048Z,544.00
2023-12-29T05:57:57.467Z,547.00
2023-12-29T05:58:57.138Z,549.00
2023-12-29T05:59:57.187Z,548.00
2023-12-29T06:00:57.256Z,547.00
2023-12-29T06:01:57.456Z,547.00
2023-12-29T06:02:57.386Z,547.00
2023-12-29T06:03:57.435Z,547.00
2023-12-29T06:04:57.472Z,546.00
2023-12-29T06:05:57.525Z,547.00
2023-12-29T06:06:57.584Z,548.00
2023-12-29T06:07:57.992Z,550.00
2023-12-29T06:08:57.678Z,549.00
2023-12-29T06:09:57.752Z,551.00
2023-12-29T06:10:57.796Z,550.00
2023-12-29T06:11:57.846Z,549.00
2023-12-29T06:12:57.906Z,548.00
2023-12-29T06:13:57.940Z,548.00
2023-12-29T06:14:58.010Z,550.00
2023-12-29T06:15:58.081Z,549.00
2023-12-29T06:16:58.099Z,550.00
2023-12-29T06:17:58.628Z,549.00
2023-12-29T06:18:58.324Z,547.00
2023-12-29T06:19:58.289Z,549.00
2023-12-29T06:20:58.341Z,548.00
2023-12-29T06:21:58.428Z,550.00
2023-12-29T06:22:58.686Z,549.00
2023-12-29T06:23:58.496Z,549.00
2023-12-29T06:24:58.561Z,546.00
2023-12-29T06:25:58.613Z,546.00
2023-12-29T06:26:58.683Z,543.00
2023-12-29T06:27:59.064Z,545.00
2023-12-29T06:28:58.803Z,547.00
2023-12-29T06:29:58.860Z,549.00
2023-12-29T06:30:58.963Z,549.00
2023-12-29T06:31:58.966Z,550.00
2023-12-29T06:32:59.139Z,550.00
2023-12-29T06:33:59.124Z,551.00
2023-12-29T06:34:59.120Z,551.00
2023-12-29T06:35:59.165Z,550.00
2023-12-29T06:36:59.241Z,551.00
2023-12-29T06:37:59.547Z,551.00
2023-12-29T06:38:59.330Z,552.00
2023-12-29T06:39:59.493Z,550.00
2023-12-29T06:40:59.433Z,551.00
2023-12-29T06:41:59.504Z,550.00
2023-12-29T06:42:59.594Z,549.00
2023-12-29T06:43:59.577Z,550.00
2023-12-29T06:44:59.633Z,548.00
2023-12-29T06:45:59.711Z,549.00
2023-12-29T06:46:59.758Z,549.00
2023-12-29T06:48:00.062Z,548.00
2023-12-29T06:48:59.963Z,549.00
2023-12-29T06:50:00.026Z,548.00
2023-12-29T06:50:59.988Z,548.00
2023-12-29T06:52:00.065Z,549.00
2023-12-29T06:53:00.073Z,551.00
2023-12-29T06:54:00.127Z,550.00
2023-12-29T06:55:00.272Z,550.00
2023-12-29T06:56:00.210Z,549.00
2023-12-29T06:57:00.238Z,550.00
2023-12-29T06:58:00.598Z,551.00
2023-12-29T06:59:00.356Z,553.00
2023-12-29T07:00:00.390Z,551.00
2023-12-29T07:01:00.562Z,549.00
2023-12-29T07:02:00.554Z,546.00
2023-12-29T07:03:00.594Z,547.00
2023-12-29T07:04:00.652Z,546.00
2023-12-29T07:05:00.823Z,546.00
2023-12-29T07:06:00.736Z,546.00
2023-12-29T07:07:00.923Z,546.00
2023-12-29T07:08:01.157Z,546.00
2023-12-29T07:09:00.909Z,545.00
2023-12-29T07:10:00.954Z,546.00
2023-12-29T07:11:00.997Z,547.00
2023-12-29T07:12:01.063Z,549.00
2023-12-29T07:13:01.216Z,549.00
2023-12-29T07:14:01.158Z,547.00
2023-12-29T07:15:01.209Z,547.00
2023-12-29T07:16:01.301Z,546.00
2023-12-29T07:17:01.315Z,545.00
2023-12-29T07:18:01.788Z,543.00
2023-12-29T07:19:01.632Z,541.00
2023-12-29T07:20:01.484Z,540.00
2023-12-29T07:21:01.533Z,540.00
2023-12-29T07:22:01.607Z,538.00
2023-12-29T07:23:01.668Z,538.00
2023-12-29T07:24:01.697Z,537.00
2023-12-29T07:25:01.859Z,539.00
2023-12-29T07:26:01.852Z,540.00
2023-12-29T07:27:01.881Z,541.00
2023-12-29T07:28:02.288Z,543.00
2023-12-29T07:29:01.978Z,543.00
2023-12-29T07:30:02.063Z,541.00
2023-12-29T07:31:02.193Z,542.00
2023-12-29T07:32:02.126Z,541.00
2023-12-29T07:33:02.237Z,541.00
2023-12-29T07:34:02.343Z,541.00
2023-12-29T07:35:02.396Z,539.00
2023-12-29T07:36:02.363Z,540.00
2023-12-29T07:37:02.462Z,542.00
2023-12-29T07:38:02.943Z,541.00
2023-12-29T07:39:02.520Z,542.00
2023-12-29T07:40:02.646Z,544.00
2023-12-29T07:41:02.608Z,544.00
2023-12-29T07:42:04.103Z,543.00
2023-12-29T07:43:02.739Z,542.00
2023-12-29T07:44:02.827Z,543.00
2023-12-29T07:45:02.827Z,544.00
2023-12-29T07:46:02.891Z,542.00
2023-12-29T07:47:02.925Z,540.00
2023-12-29T07:48:03.944Z,542.00
2023-12-29T07:49:03.104Z,544.00
2023-12-29T07:50:03.188Z,543.00
2023-12-29T07:51:03.132Z,543.00
2023-12-29T07:52:03.234Z,542.00
2023-12-29T07:53:03.242Z,541.00
2023-12-29T07:54:03.295Z,541.00
2023-12-29T07:55:03.380Z,541.00
2023-12-29T07:56:03.378Z,544.00
2023-12-29T07:57:03.423Z,546.00
2023-12-29T07:58:03.996Z,547.00
2023-12-29T07:59:03.544Z,548.00
2023-12-29T08:00:03.588Z,549.00
2023-12-29T08:01:03.753Z,548.00
2023-12-29T08:02:03.689Z,548.00
2023-12-29T08:03:03.812Z,546.00
2023-12-29T08:04:03.941Z,546.00
2023-12-29T08:05:03.928Z,546.00
2023-12-29T08:06:04.019Z,545.00
2023-12-29T08:07:04.007Z,544.00
2023-12-29T08:08:04.039Z,541.00
2023-12-29T08:09:04.103Z,540.00
2023-12-29T08:10:04.186Z,541.00
2023-12-29T08:11:04.202Z,540.00
2023-12-29T08:12:04.230Z,540.00
2023-12-29T08:13:04.274Z,539.00
2023-12-29T08:14:04.319Z,538.00
2023-12-29T08:15:04.355Z,536.00
2023-12-29T08:16:04.494Z,536.00
2023-12-29T08:17:04.485Z,535.00
2023-12-29T08:18:04.789Z,535.00
2023-12-29T08:19:04.635Z,537.00
2023-12-29T08:20:04.587Z,539.00
2023-12-29T08:21:04.640Z,541.00
2023-12-29T08:22:04.815Z,542.00
2023-12-29T08:23:04.773Z,541.00
2023-12-29T08:24:04.810Z,543.00
2023-12-29T08:25:04.908Z,542.00
2023-12-29T08:26:04.937Z,541.00
2023-12-29T08:27:04.968Z,540.00
2023-12-29T08:28:05.072Z,542.00
2023-12-29T08:29:05.065Z,543.00
2023-12-29T08:30:05.297Z,545.00
2023-12-29T08:31:05.307Z,543.00
2023-12-29T08:32:05.222Z,544.00
2023-12-29T08:33:05.362Z,543.00
2023-12-29T08:34:05.389Z,544.00
2023-12-29T08:35:05.475Z,545.00
2023-12-29T08:36:05.476Z,546.00
2023-12-29T08:37:05.548Z,545.00
2023-12-29T08:38:05.530Z,543.00
2023-12-29T08:39:05.561Z,542.00
2023-12-29T08:40:05.689Z,544.00
2023-12-29T08:41:05.696Z,544.00
2023-12-29T08:42:05.761Z,544.00
2023-12-29T08:43:05.892Z,544.00
2023-12-29T08:44:05.831Z,546.00
2023-12-29T08:45:07.138Z,545.00
2023-12-29T08:46:05.951Z,544.00
2023-12-29T08:47:05.973Z,545.00
2023-12-29T08:48:06.610Z,544.00
2023-12-29T08:49:06.142Z,544.00
2023-12-29T08:50:06.108Z,543.00
2023-12-29T08:51:06.182Z,544.00
2023-12-29T08:52:06.342Z,544.00
2023-12-29T08:53:06.249Z,544.00
2023-12-29T08:54:06.294Z,545.00
2023-12-29T08:55:06.365Z,546.00
2023-12-29T08:56:06.401Z,547.00
2023-12-29T08:57:06.449Z,548.00
2023-12-29T08:58:06.549Z,548.00
2023-12-29T08:59:06.547Z,548.00
2023-12-29T09:00:06.615Z,548.00
2023-12-29T09:01:06.752Z,549.00
2023-12-29T09:02:06.710Z,548.00
2023-12-29T09:03:06.763Z,548.00
2023-12-29T09:04:06.856Z,547.00
2023-12-29T09:05:06.993Z,548.00
2023-12-29T09:06:06.963Z,547.00
2023-12-29T09:07:07.100Z,547.00
2023-12-29T09:08:07.027Z,548.00
2023-12-29T09:09:07.092Z,548.00
2023-12-29T09:10:07.169Z,548.00
2023-12-29T09:11:07.190Z,549.00
2023-12-29T09:12:07.242Z,549.00
2023-12-29T09:13:07.354Z,549.00
2023-12-29T09:14:07.364Z,549.00
2023-12-29T09:15:07.362Z,548.00
2023-12-29T09:16:07.380Z,548.00
2023-12-29T09:17:07.465Z,549.00
2023-12-29T09:18:07.774Z,550.00
2023-12-29T09:19:22.198Z,550.00
2023-12-29T09:20:10.952Z,547.00
2023-12-29T09:21:07.605Z,547.00
2023-12-29T09:22:07.616Z,546.00
2023-12-29T09:23:07.625Z,544.00
2023-12-29T09:24:07.573Z,544.00
2023-12-29T09:25:07.676Z,546.00
2023-12-29T09:26:07.638Z,547.00
2023-12-29T09:27:08.201Z,549.00
2023-12-29T09:28:07.600Z,549.00
2023-12-29T09:29:07.572Z,548.00
2023-12-29T09:30:07.648Z,548.00
2023-12-29T09:31:07.684Z,549.00
2023-12-29T09:32:07.578Z,549.00
2023-12-29T09:33:07.668Z,550.00
2023-12-29T09:34:07.926Z,552.00
2023-12-29T09:35:07.597Z,551.00
2023-12-29T09:36:07.587Z,548.00
2023-12-29T09:37:07.624Z,549.00
2023-12-29T09:38:07.601Z,548.00
2023-12-29T09:39:07.603Z,548.00
2023-12-29T09:40:07.614Z,547.00
2023-12-29T09:41:07.589Z,545.00
2023-12-29T09:42:07.564Z,545.00
2023-12-29T09:43:07.623Z,547.00
2023-12-29T09:44:07.580Z,544.00
2023-12-29T09:45:07.609Z,545.00
2023-12-29T09:46:07.659Z,546.00
2023-12-29T09:47:07.626Z,547.00
2023-12-29T09:48:07.884Z,545.00
2023-12-29T09:49:07.694Z,544.00
2023-12-29T09:50:07.820Z,545.00
2023-12-29T09:51:08.224Z,547.00
2023-12-29T09:52:07.849Z,550.00
2023-12-29T09:53:07.854Z,549.00
2023-12-29T09:54:08.197Z,548.00
2023-12-29T09:55:08.023Z,546.00
2023-12-29T09:56:08.033Z,545.00
2023-12-29T09:57:08.067Z,546.00
2023-12-29T09:58:08.144Z,546.00
2023-12-29T09:59:08.195Z,545.00
2023-12-29T10:00:08.243Z,545.00
2023-12-29T10:01:08.399Z,545.00
2023-12-29T10:02:08.342Z,543.00
2023-12-29T10:03:08.384Z,541.00
2023-12-29T10:04:08.549Z,541.00
2023-12-29T10:05:08.576Z,540.00
2023-12-29T10:06:08.656Z,540.00
2023-12-29T10:07:08.666Z,541.00
2023-12-29T10:08:08.665Z,540.00
2023-12-29T10:09:08.667Z,540.00
2023-12-29T10:10:08.853Z,540.00
2023-12-29T10:11:08.807Z,538.00
2023-12-29T10:12:08.836Z,538.00
2023-12-29T10:13:08.918Z,537.00
2023-12-29T10:14:08.978Z,534.00
2023-12-29T10:15:09.053Z,536.00
2023-12-29T10:16:09.184Z,538.00
2023-12-29T10:17:09.102Z,538.00
2023-12-29T10:18:09.271Z,539.00
2023-12-29T10:19:09.286Z,540.00
2023-12-29T10:20:09.231Z,539.00
2023-12-29T10:21:09.301Z,538.00
2023-12-29T10:22:09.435Z,539.00
2023-12-29T10:23:09.411Z,540.00
2023-12-29T10:24:10.522Z,541.00
2023-12-29T10:25:09.510Z,541.00
2023-12-29T10:26:09.669Z,537.00
2023-12-29T10:27:09.608Z,535.00
2023-12-29T10:28:09.661Z,534.00
2023-12-29T10:29:09.682Z,535.00
2023-12-29T10:30:11.526Z,536.00
2023-12-29T10:31:09.815Z,535.00
2023-12-29T10:32:09.840Z,535.00
2023-12-29T10:33:10.004Z,537.00
2023-12-29T10:34:09.900Z,540.00
2023-12-29T10:35:09.761Z,540.00
2023-12-29T10:36:09.791Z,540.00
2023-12-29T10:37:09.778Z,541.00
2023-12-29T10:38:09.766Z,541.00
2023-12-29T10:39:09.740Z,541.00
2023-12-29T10:40:09.821Z,543.00
2023-12-29T10:41:09.750Z,542.00
2023-12-29T10:42:09.744Z,543.00
2023-12-29T10:43:10.038Z,545.00
2023-12-29T10:44:09.848Z,544.00
2023-12-29T10:45:09.785Z,543.00
2023-12-29T10:46:09.841Z,541.00
2023-12-29T10:47:09.793Z,539.00
2023-12-29T10:48:09.838Z,541.00
2023-12-29T10:49:09.811Z,540.00
2023-12-29T10:50:09.820Z,542.00
2023-12-29T10:51:09.742Z,540.00
2023-12-29T10:52:09.767Z,541.00
2023-12-29T10:53:09.756Z,541.00
2023-12-29T10:54:09.756Z,541.00
2023-12-29T10:55:09.856Z,540.00
2023-12-29T10:56:09.750Z,538.00
2023-12-29T10:57:09.751Z,536.00
2023-12-29T10:58:09.834Z,537.00
2023-12-29T10:59:09.750Z,538.00
2023-12-29T11:00:09.756Z,538.00
2023-12-29T11:01:09.800Z,539.00
2023-12-29T11:02:10.140Z,540.00
2023-12-29T11:03:09.814Z,540.00
2023-12-29T11:04:09.801Z,540.00
2023-12-29T11:05:09.897Z,540.00
2023-12-29T11:06:09.768Z,541.00
2023-12-29T11:07:09.811Z,539.00
2023-12-29T11:08:09.773Z,542.00
2023-12-29T11:09:09.774Z,546.00
2023-12-29T11:10:09.920Z,547.00
2023-12-29T11:11:09.775Z,547.00
2023-12-29T11:12:09.835Z,545.00
2023-12-29T11:13:10.267Z,545.00
2023-12-29T11:14:09.956Z,545.00
2023-12-29T11:15:10.010Z,546.00
2023-12-29T11:16:10.102Z,548.00
2023-12-29T11:17:10.118Z,548.00
2023-12-29T11:18:10.283Z,550.00
2023-12-29T11:19:10.298Z,551.00
2023-12-29T11:20:10.333Z,553.00
2023-12-29T11:21:10.371Z,551.00
2023-12-29T11:22:10.451Z,552.00
2023-12-29T11:23:10.467Z,553.00
2023-12-29T11:24:12.077Z,554.00
2023-12-29T11:25:10.533Z,556.00
2023-12-29T11:26:10.512Z,558.00
2023-12-29T11:27:10.508Z,560.00
2023-12-29T11:28:10.569Z,558.00
2023-12-29T11:29:10.511Z,556.00
2023-12-29T11:30:12.435Z,557.00
2023-12-29T11:31:10.621Z,558.00
2023-12-29T11:32:10.501Z,557.00
2023-12-29T11:33:10.628Z,557.00
2023-12-29T11:34:10.559Z,556.00
2023-12-29T11:35:10.502Z,555.00
2023-12-29T11:36:16.840Z,554.00
2023-12-29T11:37:11.504Z,556.00
2023-12-29T11:38:10.513Z,555.00
2023-12-29T11:39:10.502Z,554.00
2023-12-29T11:40:10.628Z,550.00
2023-12-29T11:41:10.497Z,551.00
2023-12-29T11:42:10.515Z,551.00
2023-12-29T11:43:10.620Z,549.00
2023-12-29T11:44:10.532Z,549.00
2023-12-29T11:45:10.496Z,550.00
2023-12-29T11:46:10.530Z,550.00
2023-12-29T11:47:10.492Z,550.00
2023-12-29T11:48:10.552Z,549.00
2023-12-29T11:49:10.883Z,549.00
2023-12-29T11:50:10.594Z,550.00
2023-12-29T11:51:10.653Z,550.00
2023-12-29T11:52:10.756Z,549.00
2023-12-29T11:53:10.771Z,552.00
2023-12-29T11:54:11.242Z,554.00
2023-12-29T11:55:11.140Z,553.00
2023-12-29T11:56:10.906Z,552.00
2023-12-29T11:57:10.948Z,550.00
2023-12-29T11:58:11.200Z,550.00
2023-12-29T11:59:11.050Z,550.00
2023-12-29T12:00:11.193Z,550.00
2023-12-29T12:01:11.190Z,548.00
2023-12-29T12:02:11.275Z,547.00
2023-12-29T12:03:11.272Z,549.00
2023-12-29T12:04:11.342Z,547.00
2023-12-29T12:05:11.381Z,547.00
2023-12-29T12:06:11.444Z,546.00
2023-12-29T12:07:11.504Z,546.00
2023-12-29T12:08:11.530Z,546.00
2023-12-29T12:09:11.625Z,546.00
2023-12-29T12:10:11.787Z,545.00
2023-12-29T12:11:11.712Z,545.00
2023-12-29T12:12:11.793Z,546.00
2023-12-29T12:13:11.874Z,544.00
2023-12-29T12:14:11.908Z,544.00
2023-12-29T12:15:12.768Z,545.00
2023-12-29T12:16:12.044Z,544.00
2023-12-29T12:17:12.046Z,545.00
2023-12-29T12:18:12.161Z,546.00
2023-12-29T12:19:12.220Z,545.00
2023-12-29T12:20:12.334Z,546.00
2023-12-29T12:21:12.242Z,546.00
2023-12-29T12:22:12.341Z,546.00
2023-12-29T12:23:12.345Z,549.00
2023-12-29T12:24:12.398Z,547.00
2023-12-29T12:25:12.460Z,550.00
2023-12-29T12:26:12.481Z,550.00
2023-12-29T12:27:12.543Z,550.00
2023-12-29T12:28:12.634Z,548.00
2023-12-29T12:29:12.647Z,548.00